sensor_id;sensor_type;location;lat;lon;timestamp;pressure;altitude;pressure_sealevel;temperature;humidity
53908;BME280;40469;47.998;7.794;2022-12-07T00:01:28;99147.00;;;2.85;100.00
53908;BME280;40469;47.998;7.794;2022-12-07T00:03:55;99141.84;;;2.85;100.00
53908;BME280;40469;47.998;7.794;2022-12-07T00:06:26;99143.56;;;2.85;100.00
53908;BME280;40469;47.998;7.794;2022-12-07T00:08:51;99142.63;;;2.81;100.00
53908;BME280;40469;47.998;7.794;2022-12-07T00:11:19;99146.09;;;2.83;100.00
53908;BME280;40469;47.998;7.794;2022-12-07T00:13:46;99142.59;;;2.80;100.00
53908;BME280;40469;47.998;7.794;2022-12-07T00:16:15;99134.03;;;2.81;100.00
53908;BME280;40469;47.998;7.794;2022-12-07T00:18:41;99139.28;;;2.85;100.00
53908;BME280;40469;47.998;7.794;2022-12-07T00:21:11;99135.91;;;2.88;100.00
53908;BME280;40469;47.998;7.794;2022-12-07T00:23:37;99136.25;;;3.02;100.00
53908;BME280;40469;47.998;7.794;2022-12-07T00:26:06;99131.09;;;3.03;100.00
53908;BME280;40469;47.998;7.794;2022-12-07T00:28:32;99120.59;;;2.96;100.00
53908;BME280;40469;47.998;7.794;2022-12-07T00:31:08;99113.78;;;2.98;100.00
53908;BME280;40469;47.998;7.794;2022-12-07T00:33:34;99107.75;;;2.97;100.00
53908;BME280;40469;47.998;7.794;2022-12-07T00:36:00;99111.72;;;2.83;100.00
53908;BME280;40469;47.998;7.794;2022-12-07T00:38:29;99105.47;;;2.73;100.00
53908;BME280;40469;47.998;7.794;2022-12-07T00:40:59;99102.19;;;2.79;100.00
53908;BME280;40469;47.998;7.794;2022-12-07T00:43:26;99101.38;;;2.81;100.00
53908;BME280;40469;47.998;7.794;2022-12-07T00:45:51;99108.19;;;2.79;100.00
53908;BME280;40469;47.998;7.794;2022-12-07T00:48:17;99096.28;;;2.84;100.00
53908;BME280;40469;47.998;7.794;2022-12-07T00:50:42;99097.16;;;2.85;100.00
53908;BME280;40469;47.998;7.794;2022-12-07T00:53:07;99104.16;;;2.91;100.00
53908;BME280;40469;47.998;7.794;2022-12-07T00:55:34;99101.50;;;2.86;100.00
53908;BME280;40469;47.998;7.794;2022-12-07T00:57:59;99098.75;;;2.80;100.00
53908;BME280;40469;47.998;7.794;2022-12-07T01:00:24;99103.28;;;2.90;100.00
53908;BME280;40469;47.998;7.794;2022-12-07T01:02:50;99106.78;;;2.92;100.00
53908;BME280;40469;47.998;7.794;2022-12-07T01:05:15;99105.28;;;3.02;100.00
53908;BME280;40469;47.998;7.794;2022-12-07T01:07:40;99107.91;;;3.05;100.00
53908;BME280;40469;47.998;7.794;2022-12-07T01:10:06;99107.06;;;3.04;100.00
53908;BME280;40469;47.998;7.794;2022-12-07T01:12:31;99108.72;;;3.02;100.00
53908;BME280;40469;47.998;7.794;2022-12-07T01:14:57;99100.75;;;2.92;100.00
53908;BME280;40469;47.998;7.794;2022-12-07T01:17:22;99111.84;;;2.89;100.00
53908;BME280;40469;47.998;7.794;2022-12-07T01:19:47;99107.59;;;2.90;100.00
53908;BME280;40469;47.998;7.794;2022-12-07T01:22:13;99101.50;;;2.86;100.00
53908;BME280;40469;47.998;7.794;2022-12-07T01:24:38;99102.41;;;2.88;100.00
53908;BME280;40469;47.998;7.794;2022-12-07T01:27:03;99115.38;;;2.93;100.00
53908;BME280;40469;47.998;7.794;2022-12-07T01:29:29;99108.50;;;2.92;100.00
53908;BME280;40469;47.998;7.794;2022-12-07T01:31:54;99115.28;;;2.88;100.00
53908;BME280;40469;47.998;7.794;2022-12-07T01:34:19;99116.06;;;2.85;100.00
53908;BME280;40469;47.998;7.794;2022-12-07T01:36:44;99113.50;;;2.85;100.00
53908;BME280;40469;47.998;7.794;2022-12-07T01:39:10;99112.53;;;2.82;100.00
53908;BME280;40469;47.998;7.794;2022-12-07T01:41:38;99111.75;;;2.84;100.00
53908;BME280;40469;47.998;7.794;2022-12-07T01:44:27;99122.97;;;2.87;100.00
53908;BME280;40469;47.998;7.794;2022-12-07T01:46:59;99128.22;;;2.90;100.00
53908;BME280;40469;47.998;7.794;2022-12-07T01:49:39;99132.47;;;2.89;100.00
53908;BME280;40469;47.998;7.794;2022-12-07T01:54:34;99127.28;;;2.88;100.00
53908;BME280;40469;47.998;7.794;2022-12-07T01:57:00;99129.03;;;2.89;100.00
53908;BME280;40469;47.998;7.794;2022-12-07T01:59:26;99128.91;;;2.82;100.00
53908;BME280;40469;47.998;7.794;2022-12-07T02:01:53;99132.34;;;2.83;100.00
53908;BME280;40469;47.998;7.794;2022-12-07T02:04:19;99135.84;;;2.85;100.00
53908;BME280;40469;47.998;7.794;2022-12-07T02:06:46;99136.66;;;2.82;100.00
53908;BME280;40469;47.998;7.794;2022-12-07T02:09:12;99123.69;;;2.79;100.00
53908;BME280;40469;47.998;7.794;2022-12-07T02:11:37;99131.53;;;2.85;100.00
53908;BME280;40469;47.998;7.794;2022-12-07T02:14:03;99132.41;;;2.84;100.00
53908;BME280;40469;47.998;7.794;2022-12-07T02:17:00;99128.06;;;2.83;100.00
53908;BME280;40469;47.998;7.794;2022-12-07T02:23:00;99129.63;;;2.77;100.00
53908;BME280;40469;47.998;7.794;2022-12-07T02:30:54;99118.13;;;2.64;100.00
53908;BME280;40469;47.998;7.794;2022-12-07T02:33:36;99120.59;;;2.59;100.00
53908;BME280;40469;47.998;7.794;2022-12-07T02:36:04;99111.00;;;2.54;100.00
53908;BME280;40469;47.998;7.794;2022-12-07T02:38:40;99113.53;;;2.52;100.00
53908;BME280;40469;47.998;7.794;2022-12-07T02:41:19;99114.19;;;2.43;100.00
53908;BME280;40469;47.998;7.794;2022-12-07T02:44:07;99120.19;;;2.42;100.00
53908;BME280;40469;47.998;7.794;2022-12-07T02:46:41;99117.66;;;2.44;100.00
53908;BME280;40469;47.998;7.794;2022-12-07T02:49:08;99116.59;;;2.36;100.00
53908;BME280;40469;47.998;7.794;2022-12-07T02:51:39;99114.06;;;2.37;100.00
53908;BME280;40469;47.998;7.794;2022-12-07T02:54:11;99119.25;;;2.39;100.00
53908;BME280;40469;47.998;7.794;2022-12-07T03:08:04;99110.66;;;2.38;100.00
53908;BME280;40469;47.998;7.794;2022-12-07T03:13:21;99117.72;;;2.47;100.00
53908;BME280;40469;47.998;7.794;2022-12-07T03:16:09;99109.03;;;2.43;100.00
53908;BME280;40469;47.998;7.794;2022-12-07T03:18:42;99106.47;;;2.43;100.00
53908;BME280;40469;47.998;7.794;2022-12-07T03:21:14;99101.31;;;2.43;100.00
53908;BME280;40469;47.998;7.794;2022-12-07T03:23:41;99100.47;;;2.44;100.00
53908;BME280;40469;47.998;7.794;2022-12-07T03:26:10;99103.06;;;2.44;100.00
53908;BME280;40469;47.998;7.794;2022-12-07T03:28:41;99097.19;;;2.50;100.00
53908;BME280;40469;47.998;7.794;2022-12-07T03:31:21;99100.59;;;2.49;100.00
53908;BME280;40469;47.998;7.794;2022-12-07T03:36:32;99104.19;;;2.54;100.00
53908;BME280;40469;47.998;7.794;2022-12-07T03:39:08;99104.00;;;2.48;100.00
53908;BME280;40469;47.998;7.794;2022-12-07T03:41:38;99108.38;;;2.51;100.00
53908;BME280;40469;47.998;7.794;2022-12-07T03:44:04;99097.13;;;2.49;100.00
53908;BME280;40469;47.998;7.794;2022-12-07T03:46:40;99097.13;;;2.49;100.00
53908;BME280;40469;47.998;7.794;2022-12-07T03:49:10;99090.22;;;2.46;100.00
53908;BME280;40469;47.998;7.794;2022-12-07T03:51:48;99092.88;;;2.49;100.00
53908;BME280;40469;47.998;7.794;2022-12-07T03:54:26;99087.78;;;2.51;100.00
53908;BME280;40469;47.998;7.794;2022-12-07T03:56:54;99084.22;;;2.47;100.00
53908;BME280;40469;47.998;7.794;2022-12-07T03:59:21;99083.34;;;2.46;100.00
53908;BME280;40469;47.998;7.794;2022-12-07T04:01:56;99089.50;;;2.52;100.00
53908;BME280;40469;47.998;7.794;2022-12-07T04:04:23;99082.66;;;2.54;100.00
53908;BME280;40469;47.998;7.794;2022-12-07T04:06:50;99076.78;;;2.58;100.00
53908;BME280;40469;47.998;7.794;2022-12-07T04:09:16;99088.03;;;2.61;100.00
53908;BME280;40469;47.998;7.794;2022-12-07T04:11:42;99076.78;;;2.58;100.00
53908;BME280;40469;47.998;7.794;2022-12-07T04:14:08;99078.53;;;2.60;100.00
53908;BME280;40469;47.998;7.794;2022-12-07T04:19:16;99086.44;;;2.68;100.00
53908;BME280;40469;47.998;7.794;2022-12-07T04:21:42;99082.00;;;2.62;100.00
53908;BME280;40469;47.998;7.794;2022-12-07T04:24:08;99081.19;;;2.63;100.00
53908;BME280;40469;47.998;7.794;2022-12-07T04:26:34;99081.16;;;2.62;100.00
53908;BME280;40469;47.998;7.794;2022-12-07T04:29:00;99084.59;;;2.62;100.00
53908;BME280;40469;47.998;7.794;2022-12-07T04:31:25;99087.06;;;2.58;100.00
53908;BME280;40469;47.998;7.794;2022-12-07T04:33:50;99086.06;;;2.51;100.00
53908;BME280;40469;47.998;7.794;2022-12-07T04:36:16;99081.75;;;2.52;100.00
53908;BME280;40469;47.998;7.794;2022-12-07T04:38:41;99076.47;;;2.47;100.00
53908;BME280;40469;47.998;7.794;2022-12-07T04:41:08;99070.59;;;2.51;100.00
53908;BME280;40469;47.998;7.794;2022-12-07T04:43:34;99074.00;;;2.50;100.00
53908;BME280;40469;47.998;7.794;2022-12-07T04:46:00;99071.31;;;2.47;100.00
53908;BME280;40469;47.998;7.794;2022-12-07T04:48:25;99072.13;;;2.44;100.00
53908;BME280;40469;47.998;7.794;2022-12-07T04:50:50;99074.00;;;2.50;100.00
53908;BME280;40469;47.998;7.794;2022-12-07T04:53:16;99063.69;;;2.50;100.00
53908;BME280;40469;47.998;7.794;2022-12-07T04:55:41;99067.06;;;2.47;100.00
53908;BME280;40469;47.998;7.794;2022-12-07T04:58:06;99070.53;;;2.50;100.00
53908;BME280;40469;47.998;7.794;2022-12-07T05:00:32;99069.66;;;2.47;100.00
53908;BME280;40469;47.998;7.794;2022-12-07T05:02:57;99071.31;;;2.45;100.00
53908;BME280;40469;47.998;7.794;2022-12-07T05:05:23;99073.78;;;2.41;100.00
53908;BME280;40469;47.998;7.794;2022-12-07T05:07:49;99075.53;;;2.42;100.00
53908;BME280;40469;47.998;7.794;2022-12-07T05:10:14;99074.59;;;2.40;100.00
53908;BME280;40469;47.998;7.794;2022-12-07T05:12:40;99072.00;;;2.38;100.00
53908;BME280;40469;47.998;7.794;2022-12-07T05:15:05;99070.28;;;2.39;100.00
53908;BME280;40469;47.998;7.794;2022-12-07T05:17:31;99065.06;;;2.36;100.00
53908;BME280;40469;47.998;7.794;2022-12-07T05:19:56;99073.78;;;2.41;100.00
53908;BME280;40469;47.998;7.794;2022-12-07T05:22:21;99074.53;;;2.37;100.00
53908;BME280;40469;47.998;7.794;2022-12-07T05:24:47;99069.31;;;2.34;100.00
53908;BME280;40469;47.998;7.794;2022-12-07T05:27:12;99070.09;;;2.31;100.00
53908;BME280;40469;47.998;7.794;2022-12-07T05:29:38;99054.63;;;2.30;100.00
53908;BME280;40469;47.998;7.794;2022-12-07T05:32:03;99071.16;;;2.39;100.00
53908;BME280;40469;47.998;7.794;2022-12-07T05:34:28;99070.34;;;2.40;100.00
53908;BME280;40469;47.998;7.794;2022-12-07T05:36:54;99064.38;;;2.43;100.00
53908;BME280;40469;47.998;7.794;2022-12-07T05:39:19;99068.44;;;2.33;100.00
53908;BME280;40469;47.998;7.794;2022-12-07T05:41:44;99061.66;;;2.37;100.00
53908;BME280;40469;47.998;7.794;2022-12-07T05:44:28;99066.72;;;2.34;100.00
53908;BME280;40469;47.998;7.794;2022-12-07T05:46:54;99063.47;;;2.41;100.00
53908;BME280;40469;47.998;7.794;2022-12-07T05:49:19;99071.75;;;2.29;100.00
53908;BME280;40469;47.998;7.794;2022-12-07T05:51:44;99066.38;;;2.20;100.00
53908;BME280;40469;47.998;7.794;2022-12-07T05:54:10;99064.66;;;2.20;100.00
53908;BME280;40469;47.998;7.794;2022-12-07T05:56:35;99063.72;;;2.17;100.00
53908;BME280;40469;47.998;7.794;2022-12-07T05:59:00;99065.97;;;2.04;100.00
53908;BME280;40469;47.998;7.794;2022-12-07T06:01:44;99063.53;;;2.09;100.00
53908;BME280;40469;47.998;7.794;2022-12-07T06:04:10;99073.16;;;2.16;100.00
53908;BME280;40469;47.998;7.794;2022-12-07T06:06:35;99072.34;;;2.19;100.00
53908;BME280;40469;47.998;7.794;2022-12-07T06:09:00;99076.53;;;2.14;100.00
53908;BME280;40469;47.998;7.794;2022-12-07T06:11:26;99074.88;;;2.16;100.00
53908;BME280;40469;47.998;7.794;2022-12-07T06:14:09;99069.69;;;2.14;100.00
53908;BME280;40469;47.998;7.794;2022-12-07T06:16:35;99075.69;;;2.15;100.00
53908;BME280;40469;47.998;7.794;2022-12-07T06:19:00;99073.88;;;2.11;100.00
53908;BME280;40469;47.998;7.794;2022-12-07T06:21:25;99070.34;;;2.07;100.00
53908;BME280;40469;47.998;7.794;2022-12-07T06:23:52;99065.91;;;2.01;100.00
53908;BME280;40469;47.998;7.794;2022-12-07T06:26:17;99063.31;;;2.00;100.00
53908;BME280;40469;47.998;7.794;2022-12-07T06:28:42;99059.00;;;2.00;100.00
53908;BME280;40469;47.998;7.794;2022-12-07T06:31:08;99061.34;;;1.91;100.00
53908;BME280;40469;47.998;7.794;2022-12-07T06:33:33;99063.94;;;1.91;100.00
53908;BME280;40469;47.998;7.794;2022-12-07T06:35:59;99067.28;;;1.88;100.00
53908;BME280;40469;47.998;7.794;2022-12-07T06:38:24;99060.47;;;1.90;100.00
53908;BME280;40469;47.998;7.794;2022-12-07T06:40:50;99066.50;;;1.91;100.00
53908;BME280;40469;47.998;7.794;2022-12-07T06:43:15;99067.22;;;1.87;100.00
53908;BME280;40469;47.998;7.794;2022-12-07T06:45:41;99085.78;;;1.74;100.00
53908;BME280;40469;47.998;7.794;2022-12-07T06:48:06;99082.91;;;1.63;100.00
53908;BME280;40469;47.998;7.794;2022-12-07T06:50:32;99087.88;;;1.57;100.00
53908;BME280;40469;47.998;7.794;2022-12-07T06:52:57;99089.22;;;1.44;100.00
53908;BME280;40469;47.998;7.794;2022-12-07T06:55:22;99088.13;;;1.36;100.00
53908;BME280;40469;47.998;7.794;2022-12-07T06:57:48;99085.34;;;1.28;100.00
53908;BME280;40469;47.998;7.794;2022-12-07T07:00:13;99093.88;;;1.27;100.00
53908;BME280;40469;47.998;7.794;2022-12-07T07:02:39;99100.72;;;1.26;100.00
53908;BME280;40469;47.998;7.794;2022-12-07T07:05:04;99092.16;;;1.26;100.00
53908;BME280;40469;47.998;7.794;2022-12-07T07:07:30;99090.28;;;1.20;100.00
53908;BME280;40469;47.998;7.794;2022-12-07T07:09:55;99094.66;;;1.24;100.00
53908;BME280;40469;47.998;7.794;2022-12-07T07:12:21;99092.75;;;1.17;100.00
53908;BME280;40469;47.998;7.794;2022-12-07T07:14:46;99097.88;;;1.17;100.00
53908;BME280;40469;47.998;7.794;2022-12-07T07:17:12;99097.63;;;1.09;100.00
53908;BME280;40469;47.998;7.794;2022-12-07T07:19:37;99102.66;;;1.05;100.00
53908;BME280;40469;47.998;7.794;2022-12-07T07:22:03;99104.44;;;1.07;100.00
53908;BME280;40469;47.998;7.794;2022-12-07T07:24:28;99110.50;;;1.09;100.00
53908;BME280;40469;47.998;7.794;2022-12-07T07:26:53;99109.84;;;1.15;100.00
53908;BME280;40469;47.998;7.794;2022-12-07T07:29:19;99113.16;;;1.12;100.00
53908;BME280;40469;47.998;7.794;2022-12-07T07:31:44;99114.78;;;1.09;100.00
53908;BME280;40469;47.998;7.794;2022-12-07T07:34:09;99118.19;;;1.08;100.00
53908;BME280;40469;47.998;7.794;2022-12-07T07:36:35;99117.28;;;1.07;100.00
53908;BME280;40469;47.998;7.794;2022-12-07T07:39:00;99119.75;;;1.03;100.00
53908;BME280;40469;47.998;7.794;2022-12-07T07:41:25;99130.94;;;1.05;100.00
53908;BME280;40469;47.998;7.794;2022-12-07T07:43:51;99129.00;;;0.98;100.00
53908;BME280;40469;47.998;7.794;2022-12-07T07:46:16;99124.97;;;1.06;100.00
53908;BME280;40469;47.998;7.794;2022-12-07T07:48:41;99129.50;;;1.13;100.00
53908;BME280;40469;47.998;7.794;2022-12-07T07:51:07;99128.69;;;1.16;100.00
53908;BME280;40469;47.998;7.794;2022-12-07T07:53:33;99132.97;;;1.15;100.00
53908;BME280;40469;47.998;7.794;2022-12-07T07:55:58;99129.44;;;1.11;100.00
53908;BME280;40469;47.998;7.794;2022-12-07T07:58:24;99127.03;;;1.18;100.00
53908;BME280;40469;47.998;7.794;2022-12-07T08:00:49;99136.72;;;1.26;100.00
53908;BME280;40469;47.998;7.794;2022-12-07T08:03:15;99131.69;;;1.29;100.00
53908;BME280;40469;47.998;7.794;2022-12-07T08:05:40;99136.25;;;1.38;100.00
53908;BME280;40469;47.998;7.794;2022-12-07T08:08:06;99140.53;;;1.39;100.00
53908;BME280;40469;47.998;7.794;2022-12-07T08:10:31;99144.13;;;1.44;100.00
53908;BME280;40469;47.998;7.794;2022-12-07T08:12:57;99138.63;;;1.61;100.00
53908;BME280;40469;47.998;7.794;2022-12-07T08:15:42;99145.31;;;1.56;100.00
53908;BME280;40469;47.998;7.794;2022-12-07T08:18:08;99147.16;;;1.60;100.00
53908;BME280;40469;47.998;7.794;2022-12-07T08:20:34;99144.00;;;1.70;100.00
53908;BME280;40469;47.998;7.794;2022-12-07T08:23:00;99145.19;;;1.81;100.00
53908;BME280;40469;47.998;7.794;2022-12-07T08:25:26;99147.72;;;2.10;100.00
53908;BME280;40469;47.998;7.794;2022-12-07T08:27:52;99148.13;;;2.27;100.00
53908;BME280;40469;47.998;7.794;2022-12-07T08:30:19;99154.00;;;2.55;100.00
53908;BME280;40469;47.998;7.794;2022-12-07T08:32:45;99149.53;;;2.84;100.00
53908;BME280;40469;47.998;7.794;2022-12-07T08:35:11;99152.78;;;2.75;100.00
53908;BME280;40469;47.998;7.794;2022-12-07T08:37:36;99149.53;;;2.84;100.00
53908;BME280;40469;47.998;7.794;2022-12-07T08:40:04;99155.00;;;2.96;100.00
53908;BME280;40469;47.998;7.794;2022-12-07T08:42:29;99153.44;;;3.03;100.00
53908;BME280;40469;47.998;7.794;2022-12-07T08:45:04;99148.81;;;3.26;100.00
53908;BME280;40469;47.998;7.794;2022-12-07T08:47:30;99154.50;;;3.11;100.00
53908;BME280;40469;47.998;7.794;2022-12-07T08:49:56;99154.63;;;2.79;100.00
53908;BME280;40469;47.998;7.794;2022-12-07T08:52:22;99152.13;;;2.82;100.00
53908;BME280;40469;47.998;7.794;2022-12-07T08:54:47;99161.00;;;2.95;100.00
53908;BME280;40469;47.998;7.794;2022-12-07T08:57:13;99164.31;;;2.90;100.00
53908;BME280;40469;47.998;7.794;2022-12-07T08:59:39;99157.38;;;2.87;100.00
53908;BME280;40469;47.998;7.794;2022-12-07T09:02:05;99159.56;;;2.72;100.00
53908;BME280;40469;47.998;7.794;2022-12-07T09:04:30;99150.19;;;2.74;100.00
53908;BME280;40469;47.998;7.794;2022-12-07T09:06:56;99145.91;;;2.74;100.00
53908;BME280;40469;47.998;7.794;2022-12-07T09:09:21;99153.06;;;2.88;100.00
53908;BME280;40469;47.998;7.794;2022-12-07T09:11:46;99152.75;;;3.10;100.00
53908;BME280;40469;47.998;7.794;2022-12-07T09:14:12;99148.38;;;3.46;100.00
53908;BME280;40469;47.998;7.794;2022-12-07T09:16:38;99155.78;;;3.70;100.00
53908;BME280;40469;47.998;7.794;2022-12-07T09:19:04;99160.22;;;3.77;100.00
53908;BME280;40469;47.998;7.794;2022-12-07T09:21:29;99157.13;;;3.95;100.00
53908;BME280;40469;47.998;7.794;2022-12-07T09:23:55;99168.59;;;4.09;100.00
53908;BME280;40469;47.998;7.794;2022-12-07T09:26:20;99161.53;;;4.45;100.00
53908;BME280;40469;47.998;7.794;2022-12-07T09:28:46;99158.88;;;4.92;100.00
53908;BME280;40469;47.998;7.794;2022-12-07T09:31:11;99153.47;;;5.33;100.00
53908;BME280;40469;47.998;7.794;2022-12-07T09:33:36;99158.16;;;5.62;100.00
53908;BME280;40469;47.998;7.794;2022-12-07T09:36:03;99151.06;;;6.14;100.00
53908;BME280;40469;47.998;7.794;2022-12-07T09:38:28;99144.19;;;6.18;100.00
53908;BME280;40469;47.998;7.794;2022-12-07T09:40:55;99157.28;;;6.33;100.00
53908;BME280;40469;47.998;7.794;2022-12-07T09:43:23;99160.13;;;6.55;100.00
53908;BME280;40469;47.998;7.794;2022-12-07T09:45:54;99148.13;;;6.69;100.00
53908;BME280;40469;47.998;7.794;2022-12-07T09:48:30;99152.41;;;5.84;100.00
53908;BME280;40469;47.998;7.794;2022-12-07T09:50:58;99139.22;;;5.67;100.00
53908;BME280;40469;47.998;7.794;2022-12-07T09:53:28;99143.13;;;6.00;100.00
53908;BME280;40469;47.998;7.794;2022-12-07T09:55:55;99141.91;;;6.50;100.00
53908;BME280;40469;47.998;7.794;2022-12-07T09:58:26;99139.34;;;6.56;100.00
53908;BME280;40469;47.998;7.794;2022-12-07T10:03:32;99131.47;;;5.67;100.00
53908;BME280;40469;47.998;7.794;2022-12-07T10:05:57;99130.63;;;5.72;100.00
53908;BME280;40469;47.998;7.794;2022-12-07T10:08:24;99123.22;;;5.98;100.00
53908;BME280;40469;47.998;7.794;2022-12-07T10:10:52;99123.19;;;6.90;100.00
53908;BME280;40469;47.998;7.794;2022-12-07T10:13:38;99125.09;;;7.14;100.00
53908;BME280;40469;47.998;7.794;2022-12-07T10:16:04;99112.56;;;6.57;100.00
53908;BME280;40469;47.998;7.794;2022-12-07T10:21:19;99112.16;;;7.18;100.00
53908;BME280;40469;47.998;7.794;2022-12-07T10:24:05;99105.31;;;7.33;100.00
53908;BME280;40469;47.998;7.794;2022-12-07T10:26:35;99101.59;;;6.91;100.00
53908;BME280;40469;47.998;7.794;2022-12-07T10:31:53;99102.69;;;7.28;100.00
53908;BME280;40469;47.998;7.794;2022-12-07T10:39:49;99087.44;;;8.30;100.00
53908;BME280;40469;47.998;7.794;2022-12-07T10:42:23;99081.25;;;7.75;100.00
53908;BME280;40469;47.998;7.794;2022-12-07T10:45:06;99070.59;;;7.15;100.00
53908;BME280;40469;47.998;7.794;2022-12-07T10:53:14;99067.50;;;8.32;100.00
53908;BME280;40469;47.998;7.794;2022-12-07T10:58:31;99053.56;;;7.99;100.00
53908;BME280;40469;47.998;7.794;2022-12-07T11:01:11;99056.19;;;7.94;100.00
53908;BME280;40469;47.998;7.794;2022-12-07T11:04:39;99041.41;;;7.79;100.00
53908;BME280;40469;47.998;7.794;2022-12-07T11:07:22;99037.16;;;8.14;100.00
53908;BME280;40469;47.998;7.794;2022-12-07T11:10:18;99031.97;;;8.40;100.00
53908;BME280;40469;47.998;7.794;2022-12-07T11:12:50;99030.25;;;8.44;100.00
53908;BME280;40469;47.998;7.794;2022-12-07T11:18:51;99031.69;;;7.25;100.00
53908;BME280;40469;47.998;7.794;2022-12-07T11:24:04;99020.38;;;7.12;100.00
53908;BME280;40469;47.998;7.794;2022-12-07T11:29:39;99015.41;;;7.73;100.00
53908;BME280;40469;47.998;7.794;2022-12-07T11:32:25;99014.50;;;7.64;100.00
53908;BME280;40469;47.998;7.794;2022-12-07T11:35:07;99010.16;;;7.55;100.00
53908;BME280;40469;47.998;7.794;2022-12-07T11:37:35;99002.34;;;7.47;100.00
53908;BME280;40469;47.998;7.794;2022-12-07T11:40:15;99009.22;;;7.34;100.00
53908;BME280;40469;47.998;7.794;2022-12-07T11:42:48;99005.00;;;7.72;100.00
53908;BME280;40469;47.998;7.794;2022-12-07T11:45:20;99000.69;;;7.83;100.00
53908;BME280;40469;47.998;7.794;2022-12-07T11:50:56;98987.72;;;8.22;100.00
53908;BME280;40469;47.998;7.794;2022-12-07T11:53:38;98990.31;;;8.02;100.00
53908;BME280;40469;47.998;7.794;2022-12-07T12:03:42;98984.09;;;7.33;100.00
53908;BME280;40469;47.998;7.794;2022-12-07T12:06:09;98976.28;;;7.29;100.00
53908;BME280;40469;47.998;7.794;2022-12-07T12:08:53;98971.94;;;7.21;100.00
53908;BME280;40469;47.998;7.794;2022-12-07T12:14:14;98973.44;;;6.72;100.00
53908;BME280;40469;47.998;7.794;2022-12-07T12:19:37;98964.78;;;6.70;100.00
53908;BME280;40469;47.998;7.794;2022-12-07T12:22:14;98956.91;;;6.54;100.00
53908;BME280;40469;47.998;7.794;2022-12-07T12:24:42;98960.28;;;6.44;100.00
53908;BME280;40469;47.998;7.794;2022-12-07T12:27:15;98953.38;;;6.44;100.00
53908;BME280;40469;47.998;7.794;2022-12-07T12:29:43;98950.72;;;6.35;100.00
53908;BME280;40469;47.998;7.794;2022-12-07T12:32:39;98958.34;;;6.14;100.00
53908;BME280;40469;47.998;7.794;2022-12-07T12:37:49;98959.13;;;6.03;100.00
53908;BME280;40469;47.998;7.794;2022-12-07T12:42:53;98946.97;;;5.96;100.00
53908;BME280;40469;47.998;7.794;2022-12-07T12:45:34;98944.41;;;5.99;100.00
53908;BME280;40469;47.998;7.794;2022-12-07T12:48:01;98943.56;;;6.03;100.00
53908;BME280;40469;47.998;7.794;2022-12-07T12:50:37;98947.72;;;5.86;100.00
53908;BME280;40469;47.998;7.794;2022-12-07T12:53:03;98949.56;;;5.98;100.00
53908;BME280;40469;47.998;7.794;2022-12-07T13:00:42;98931.38;;;5.95;100.00
53908;BME280;40469;47.998;7.794;2022-12-07T13:03:26;98934.75;;;5.83;100.00
53908;BME280;40469;47.998;7.794;2022-12-07T13:09:18;98938.16;;;5.80;100.00
53908;BME280;40469;47.998;7.794;2022-12-07T13:11:47;98926.97;;;5.83;100.00
53908;BME280;40469;47.998;7.794;2022-12-07T13:17:08;98924.22;;;5.67;100.00
53908;BME280;40469;47.998;7.794;2022-12-07T13:25:12;98922.59;;;5.80;100.00
53908;BME280;40469;47.998;7.794;2022-12-07T13:27:57;98916.56;;;5.80;100.00
53908;BME280;40469;47.998;7.794;2022-12-07T13:30:23;98914.81;;;5.79;100.00
53908;BME280;40469;47.998;7.794;2022-12-07T13:32:56;98913.97;;;5.80;100.00
53908;BME280;40469;47.998;7.794;2022-12-07T13:35:28;98920.91;;;5.79;100.00
53908;BME280;40469;47.998;7.794;2022-12-07T13:37:53;98919.06;;;5.67;100.00
53908;BME280;40469;47.998;7.794;2022-12-07T13:40:21;98918.09;;;5.56;100.00
53908;BME280;40469;47.998;7.794;2022-12-07T13:42:47;98915.41;;;5.45;100.00
53908;BME280;40469;47.998;7.794;2022-12-07T13:45:30;98909.38;;;5.48;100.00
53908;BME280;40469;47.998;7.794;2022-12-07T13:48:43;98909.28;;;5.39;100.00
53908;BME280;40469;47.998;7.794;2022-12-07T13:51:17;98910.97;;;5.35;100.00
53908;BME280;40469;47.998;7.794;2022-12-07T13:53:49;98907.53;;;5.33;100.00
53908;BME280;40469;47.998;7.794;2022-12-07T13:56:14;98907.47;;;5.30;100.00
53908;BME280;40469;47.998;7.794;2022-12-07T13:58:41;98900.56;;;5.30;100.00
53908;BME280;40469;47.998;7.794;2022-12-07T14:01:07;98901.47;;;5.34;100.00
53908;BME280;40469;47.998;7.794;2022-12-07T14:03:34;98901.44;;;5.31;100.00
53908;BME280;40469;47.998;7.794;2022-12-07T14:06:07;98906.66;;;5.34;100.00
53908;BME280;40469;47.998;7.794;2022-12-07T14:08:36;98898.00;;;5.32;100.00
53908;BME280;40469;47.998;7.794;2022-12-07T14:11:03;98903.06;;;5.20;100.00
53908;BME280;40469;47.998;7.794;2022-12-07T14:16:24;98889.19;;;5.15;100.00
53908;BME280;40469;47.998;7.794;2022-12-07T14:18:50;98892.63;;;5.15;100.00
53908;BME280;40469;47.998;7.794;2022-12-07T14:21:18;98897.03;;;5.24;100.00
53908;BME280;40469;47.998;7.794;2022-12-07T14:23:44;98889.28;;;5.21;100.00
53908;BME280;40469;47.998;7.794;2022-12-07T14:26:13;98892.69;;;5.18;100.00
53908;BME280;40469;47.998;7.794;2022-12-07T14:28:41;98881.34;;;5.05;100.00
53908;BME280;40469;47.998;7.794;2022-12-07T14:31:18;98891.56;;;4.98;100.00
53908;BME280;40469;47.998;7.794;2022-12-07T14:33:45;98893.34;;;5.00;100.00
53908;BME280;40469;47.998;7.794;2022-12-07T14:36:12;98894.97;;;4.92;100.00
53908;BME280;40469;47.998;7.794;2022-12-07T14:38:43;98888.16;;;4.99;100.00
53908;BME280;40469;47.998;7.794;2022-12-07T14:41:23;98889.81;;;4.93;100.00
53908;BME280;40469;47.998;7.794;2022-12-07T14:44:11;98887.16;;;4.87;100.00
53908;BME280;40469;47.998;7.794;2022-12-07T14:46:37;98886.31;;;4.90;100.00
53908;BME280;40469;47.998;7.794;2022-12-07T14:49:02;98885.44;;;4.88;100.00
53908;BME280;40469;47.998;7.794;2022-12-07T14:51:28;98887.06;;;4.77;100.00
53908;BME280;40469;47.998;7.794;2022-12-07T14:53:53;98886.16;;;4.73;100.00